Monticello, AR

4:46 PM CDT en Junio 21, 2018 (GMT -0500)
Deer Run | | Change Station

Alt 292 ft 33.60 °N, 91.81 °W | Updated 16 seconds ago

Partly Cloudy
Parcialmente nublado
90.7 ° F
Sensación térmica 107 ° F
N
1.34
Viento Variable Viento desde SE
Gusts 4.0 mph

Hoy
Alta -- | Baja -- ° F
--% Posibilidad de precipitaciones
Ayer
Alta -- | Baja -- ° F
Precip. -- pul
Presión 29.83 pul
Visibilidad 10.0 Millas
Nubes Baja 3500 ft
Índice de calor 107 ° F
Punto de rocío 79 ° F
Humedad 68%
Precipitaciones 1.72 pul
Espesor de la nieve No disponible.
5:57 AM 8:20 PM
Gibosa creciente, 65% visible
METAR KLLQ 211953Z AUTO 26012G16KT 10SM FEW035 32/23 A2984 RMK AO2 SLP100 T03170228
Presión 29.83 pul
Visibilidad 10.0 Millas
Nubes Baja 3500 ft
Índice de calor 107 ° F
Punto de rocío 79 ° F
Humedad 68%
Precipitaciones 1.72 pul
Espesor de la nieve No disponible.
5:57 AM 8:20 PM
Gibosa creciente, 65% visible
METAR KLLQ 211953Z AUTO 26012G16KT 10SM FEW035 32/23 A2984 RMK AO2 SLP100 T03170228

Get Severe Weather Alerts

Thanks for signing up!

Be on the lookout for a verification email in your inbox.

You'll start receiving the daily forecast at 6 AM.

×

10-Day Weather Forecast

Almanac

Astronomía

Jun. 21, 2018 Salida Puesta
Hora real
Crepúsculo civil
Crepúsculo náutico
Crepúsculo astronómico
Luna
Horas de luz
Horas de luz
Tomorrow will be .
, % of the Moon is Illuminated

Extremos de hoy

Máximos del estado Bajos del estado

Community

WunderPhotos

Category 6

Welcome to Category 6. This is the collective home for Weather Underground's featured writeups by Dr. Jeff Masters (right), Bob Henson (left), Chris Burt, and other regular contributors.

Nearby

Calidad del aire

  Calidad del aire Índice AQ Contaminante
Not available.

Grosos de nieve

Estación Profundido Altura

Actividad de terremotos

Ciudad Distance Mag. Tiempo y dato
Magnitud mínima muestra es 2,5.

Temperaturas de aguas costeras

Lugar Temperatura

Stations

Estaciones meteorológicas cercanas

Ubicación de la estación Temp. Vientos helados Punto de rocío Humedad Viento Precip. Alt Actualizado Tipo
                   

Watches & Warnings

There are currently no watches in effect.